Time;durP1;ratioP1;P1;durP2;ratioP2;P2;SDS_P1;SDS_P2;PMS_P1;PMS_P2;Temp;Humidity;BMP_temperature;BMP_pressure;BME280_temperature;BME280_humidity;BME280_pressure;Samples;Min_cycle;Max_cycle;Signal;HPM_P1;HPM_P2
2024/01/16 00:00:14;;;;;;;5.25;1.83;;;;;;;-1.22;100.00;99371.75;10562749;28;20040;-79
2024/01/16 00:05:17;;;;;;;4.72;1.35;;;;;;;-0.68;100.00;99383.13;10561737;28;20032;-78
2024/01/16 00:10:20;;;;;;;1.90;1.35;;;;;;;-0.99;100.00;99384.66;10566146;28;20028;-79
2024/01/16 00:15:24;;;;;;;2.25;1.20;;;;;;;-0.86;100.00;99394.59;10573443;28;20034;-78
2024/01/16 00:20:28;;;;;;;2.53;1.05;;;;;;;-0.89;100.00;99386.81;10556741;28;20059;-78
2024/01/16 00:25:31;;;;;;;9.73;1.95;;;;;;;-1.13;100.00;99409.97;10572960;28;20037;-79
2024/01/16 00:30:35;;;;;;;6.63;2.10;;;;;;;-1.05;100.00;99410.44;10567225;28;20032;-79
2024/01/16 00:35:38;;;;;;;6.80;1.73;;;;;;;-0.99;100.00;99418.06;10551166;28;20048;-78
2024/01/16 00:40:41;;;;;;;14.75;1.88;;;;;;;-0.86;100.00;99423.59;10564996;28;20024;-80
2024/01/16 00:45:46;;;;;;;4.85;1.63;;;;;;;-1.13;100.00;99429.25;10546041;28;20091;-79
2024/01/16 00:50:49;;;;;;;2.60;1.15;;;;;;;-1.10;100.00;99426.47;10569549;28;20044;-79
2024/01/16 00:55:54;;;;;;;3.97;1.35;;;;;;;-0.98;100.00;99431.16;10562141;28;20067;-79
2024/01/16 01:00:58;;;;;;;2.90;1.30;;;;;;;-0.94;100.00;99439.78;10557808;28;20047;-78
2024/01/16 01:06:01;;;;;;;4.75;1.20;;;;;;;-0.95;100.00;99428.38;10557936;28;20073;-78
2024/01/16 01:11:05;;;;;;;9.73;1.08;;;;;;;-1.13;100.00;99444.22;10566333;28;20028;-78
2024/01/16 01:16:09;;;;;;;7.15;1.30;;;;;;;-0.96;100.00;99449.53;10570061;28;20032;-78
2024/01/16 01:21:12;;;;;;;3.20;1.50;;;;;;;-1.17;100.00;99443.53;10534961;28;20048;-79
2024/01/16 01:26:17;;;;;;;10.48;2.20;;;;;;;-1.07;100.00;99459.75;10567850;28;20036;-78
2024/01/16 01:31:22;;;;;;;5.22;1.60;;;;;;;-1.31;100.00;99477.59;10568878;28;20036;-78
2024/01/16 01:36:25;;;;;;;6.60;1.73;;;;;;;-1.51;100.00;99486.38;10559255;28;20086;-78
2024/01/16 01:41:28;;;;;;;5.70;1.80;;;;;;;-1.22;100.00;99492.97;10562389;28;20048;-78
2024/01/16 01:46:34;;;;;;;4.57;1.27;;;;;;;-1.61;100.00;99499.13;10566977;28;20044;-79
2024/01/16 01:51:37;;;;;;;6.15;1.95;;;;;;;-1.04;100.00;99496.50;10561910;28;20080;-78
2024/01/16 01:56:40;;;;;;;7.53;2.05;;;;;;;-1.17;100.00;99506.78;10546651;28;20056;-78
2024/01/16 02:01:46;;;;;;;10.48;2.33;;;;;;;-1.49;100.00;99513.50;10570233;28;20666;-78
2024/01/16 02:06:49;;;;;;;8.30;2.30;;;;;;;-1.12;100.00;99509.22;10559769;28;20040;-78
2024/01/16 02:11:52;;;;;;;6.68;2.70;;;;;;;-1.33;100.00;99514.53;10572259;28;20051;-78
2024/01/16 02:16:57;;;;;;;15.82;3.65;;;;;;;-1.13;100.00;99520.66;10573515;28;20046;-77
2024/01/16 02:22:01;;;;;;;14.00;2.92;;;;;;;-0.79;100.00;99514.66;10559838;28;20052;-78
2024/01/16 02:27:06;;;;;;;15.77;3.88;;;;;;;-0.79;100.00;99501.47;10569522;28;20058;-78
2024/01/16 02:32:12;;;;;;;10.20;3.28;;;;;;;-0.77;100.00;99523.34;10572648;28;20047;-79
2024/01/16 02:37:15;;;;;;;14.38;4.35;;;;;;;-0.92;100.00;99534.63;10555765;28;20032;-79
2024/01/16 02:42:20;;;;;;;8.80;2.60;;;;;;;-0.84;100.00;99522.78;10549762;28;20040;-78
2024/01/16 02:47:23;;;;;;;11.63;3.28;;;;;;;-1.27;100.00;99535.31;10577942;28;20028;-78
2024/01/16 02:52:26;;;;;;;7.82;2.55;;;;;;;-1.22;100.00;99554.41;10561725;28;20032;-78
2024/01/16 02:57:30;;;;;;;10.25;3.67;;;;;;;-1.02;100.00;99550.84;10559716;28;20059;-78
2024/01/16 03:02:33;;;;;;;12.82;3.35;;;;;;;-0.66;100.00;99555.31;10573103;28;20043;-78
2024/01/16 03:07:37;;;;;;;16.75;4.20;;;;;;;-1.09;100.00;99559.16;10562943;28;20024;-78
2024/01/16 03:12:41;;;;;;;16.90;2.65;;;;;;;-0.72;100.00;99561.75;10573966;28;20036;-79
2024/01/16 03:17:44;;;;;;;7.13;2.38;;;;;;;-1.12;100.00;99575.09;10558503;28;20039;-78
2024/01/16 03:22:48;;;;;;;6.57;2.97;;;;;;;-0.89;100.00;99568.75;10575724;28;20028;-78
2024/01/16 03:27:54;;;;;;;12.95;4.10;;;;;;;-0.87;100.00;99569.56;10540821;28;20078;-79
2024/01/16 03:39:44;;;;;;;8.65;4.05;;;;;;;-1.12;100.00;99577.75;10530127;28;20032;-80
2024/01/16 03:44:49;;;;;;;10.82;3.60;;;;;;;-1.47;100.00;99578.38;10523896;28;20051;-80
2024/01/16 03:49:52;;;;;;;7.45;3.22;;;;;;;-1.04;100.00;99589.63;10549121;28;20040;-79
2024/01/16 03:54:55;;;;;;;9.07;2.92;;;;;;;-1.01;100.00;99568.41;10528868;28;20036;-77
2024/01/16 03:59:59;;;;;;;16.38;4.43;;;;;;;-0.84;100.00;99575.53;10569199;28;20051;-79
2024/01/16 04:05:02;;;;;;;11.68;4.75;;;;;;;-1.17;100.00;99580.56;10533747;28;20048;-79
2024/01/16 04:10:08;;;;;;;12.48;3.75;;;;;;;-1.18;100.00;99578.84;10536301;28;20043;-79
2024/01/16 04:15:12;;;;;;;8.07;3.65;;;;;;;-1.28;100.00;99574.94;10537181;28;20383;-79
2024/01/16 04:20:15;;;;;;;9.35;3.10;;;;;;;-1.33;100.00;99580.41;10540420;28;20042;-78
2024/01/16 04:25:18;;;;;;;9.93;4.07;;;;;;;-1.50;100.00;99569.78;10535120;28;20123;-79
2024/01/16 04:30:22;;;;;;;12.00;5.45;;;;;;;-1.07;100.00;99581.88;10532580;28;20044;-79
2024/01/16 04:35:25;;;;;;;11.40;4.45;;;;;;;-1.38;100.00;99574.47;10531036;28;20040;-80
2024/01/16 04:40:28;;;;;;;12.85;6.07;;;;;;;-0.90;100.00;99577.59;10524453;28;20040;-80
2024/01/16 04:45:32;;;;;;;10.77;5.47;;;;;;;-1.02;100.00;99574.59;10528446;28;20612;-80
2024/01/16 04:50:36;;;;;;;8.95;6.00;;;;;;;-1.12;100.00;99578.59;10513482;28;20049;-80
2024/01/16 04:55:39;;;;;;;8.43;4.53;;;;;;;-1.32;100.00;99590.00;10514803;28;20086;-79
2024/01/16 05:00:43;;;;;;;20.17;6.90;;;;;;;-0.76;100.00;99575.16;10525228;28;20040;-80
2024/01/16 05:05:46;;;;;;;12.93;4.70;;;;;;;-1.17;100.00;99585.84;10522057;28;20047;-80
2024/01/16 05:10:49;;;;;;;8.07;4.68;;;;;;;-1.70;100.00;99576.78;10521427;28;20048;-80
2024/01/16 05:15:54;;;;;;;15.02;5.97;;;;;;;-1.22;100.00;99564.97;10517011;28;20055;-78
2024/01/16 05:20:57;;;;;;;11.38;6.07;;;;;;;-0.83;100.00;99569.31;10533001;28;20042;-79
2024/01/16 05:26:02;;;;;;;16.17;6.68;;;;;;;-0.59;100.00;99567.31;10527930;28;20071;-79
2024/01/16 05:31:07;;;;;;;12.40;5.03;;;;;;;-1.08;100.00;99566.97;10528667;28;20044;-80
2024/01/16 05:36:10;;;;;;;12.20;5.90;;;;;;;-1.36;100.00;99572.63;10505101;28;20072;-79
2024/01/16 05:41:14;;;;;;;12.38;5.45;;;;;;;-1.07;100.00;99565.19;10513023;28;20044;-80
2024/01/16 05:46:19;;;;;;;17.55;6.28;;;;;;;-1.16;100.00;99569.09;10507198;28;20404;-80
2024/01/16 05:51:22;;;;;;;27.65;6.32;;;;;;;-1.34;100.00;99564.66;10517845;28;20051;-79
2024/01/16 05:56:25;;;;;;;11.18;4.35;;;;;;;-1.31;100.00;99561.91;10525356;28;20699;-80
2024/01/16 06:01:29;;;;;;;14.75;5.45;;;;;;;-1.01;100.00;99564.91;10526179;28;20047;-80
2024/01/16 06:06:33;;;;;;;13.88;5.70;;;;;;;-1.30;100.00;99561.81;10523876;28;20523;-80
2024/01/16 06:11:38;;;;;;;16.65;5.03;;;;;;;-0.97;100.00;99563.84;10541290;28;20048;-80
2024/01/16 06:16:42;;;;;;;9.60;4.32;;;;;;;-1.47;100.00;99573.13;10507879;28;20518;-80
2024/01/16 06:21:45;;;;;;;4.45;2.70;;;;;;;-1.29;100.00;99567.94;10507720;28;20040;-79
2024/01/16 06:26:48;;;;;;;12.23;5.80;;;;;;;-1.47;100.00;99567.84;10514369;28;20052;-80
2024/01/16 06:31:52;;;;;;;13.68;5.68;;;;;;;-0.97;100.00;99569.09;10525701;28;20113;-80
2024/01/16 06:36:55;;;;;;;9.50;4.38;;;;;;;-1.18;100.00;99565.66;10521069;28;20048;-79
2024/01/16 06:41:57;;;;;;;15.70;5.90;;;;;;;-1.23;100.00;99568.53;10518329;28;20048;-80
2024/01/16 06:47:02;;;;;;;7.32;3.20;;;;;;;-1.43;100.00;99579.94;10519782;28;20056;-79
2024/01/16 06:52:05;;;;;;;15.25;3.22;;;;;;;-1.40;100.00;99566.66;10530477;28;20106;-80
2024/01/16 06:57:08;;;;;;;18.77;6.00;;;;;;;-1.00;100.00;99582.44;10531221;28;20051;-80
2024/01/16 07:02:12;;;;;;;14.45;5.28;;;;;;;-1.13;100.00;99581.28;10531851;28;20070;-79
2024/01/16 07:07:15;;;;;;;12.43;5.90;;;;;;;-0.75;100.00;99587.41;10525970;28;20123;-80
2024/01/16 07:12:18;;;;;;;7.32;2.67;;;;;;;-1.33;100.00;99590.09;10533230;28;20040;-80
2024/01/16 07:17:22;;;;;;;11.60;3.72;;;;;;;-0.99;100.00;99587.66;10510675;28;20517;-80
2024/01/16 07:22:27;;;;;;;13.55;4.03;;;;;;;-1.06;100.00;99594.13;10528937;28;20036;-80
2024/01/16 07:27:29;;;;;;;15.23;4.22;;;;;;;-1.28;100.00;99586.31;10525196;28;20097;-79
2024/01/16 07:32:34;;;;;;;17.40;5.43;;;;;;;-1.24;100.00;99585.25;10528803;28;20093;-80
2024/01/16 07:37:37;;;;;;;8.70;4.15;;;;;;;-1.56;100.00;99606.88;10529737;28;20121;-80
2024/01/16 07:42:40;;;;;;;13.43;5.60;;;;;;;-1.00;100.00;99606.16;10531216;28;20039;-80
2024/01/16 07:47:45;;;;;;;9.38;4.15;;;;;;;-1.16;100.00;99616.53;10525354;28;20419;-80
2024/01/16 07:52:48;;;;;;;10.80;5.63;;;;;;;-1.07;100.00;99616.13;10529213;28;20036;-80
2024/01/16 07:57:51;;;;;;;16.17;5.93;;;;;;;-1.03;100.00;99607.16;10523784;28;20059;-80
2024/01/16 08:02:55;;;;;;;8.82;4.22;;;;;;;-0.87;100.00;99615.22;10521999;28;20383;-80
2024/01/16 08:07:58;;;;;;;14.57;4.63;;;;;;;-1.01;100.00;99617.66;10526833;28;20074;-79
2024/01/16 08:13:01;;;;;;;12.05;6.57;;;;;;;-1.35;100.00;99613.84;10514937;28;20063;-79
2024/01/16 08:18:06;;;;;;;16.35;7.65;;;;;;;-0.82;100.00;99607.97;10523139;28;20028;-78
2024/01/16 08:23:09;;;;;;;13.82;5.80;;;;;;;-1.34;100.00;99620.88;10567046;28;20044;-78
2024/01/16 08:28:12;;;;;;;12.98;6.22;;;;;;;-0.98;100.00;99626.25;10567457;28;20075;-77
2024/01/16 08:33:16;;;;;;;16.45;6.43;;;;;;;-1.13;100.00;99623.44;10567116;28;20032;-77
2024/01/16 08:38:19;;;;;;;15.27;4.93;;;;;;;-0.88;100.00;99631.94;10558106;28;20065;-76
2024/01/16 08:43:22;;;;;;;11.55;4.93;;;;;;;-1.03;100.00;99632.66;10553833;28;20036;-79
2024/01/16 08:48:27;;;;;;;8.95;4.07;;;;;;;-0.81;100.00;99630.75;10544355;28;20049;-79
2024/01/16 08:53:30;;;;;;;10.07;4.72;;;;;;;-0.30;98.02;99631.03;10521971;28;20082;-79
2024/01/16 08:58:35;;;;;;;13.45;5.38;;;;;;;-0.58;100.00;99642.00;10521865;28;20048;-79
2024/01/16 09:03:40;;;;;;;21.85;4.80;;;;;;;-0.81;100.00;99640.47;10546116;28;20040;-78
2024/01/16 09:08:44;;;;;;;10.45;5.82;;;;;;;-0.66;100.00;99639.72;10549296;28;20031;-78
2024/01/16 09:13:47;;;;;;;10.25;4.57;;;;;;;-0.69;100.00;99645.16;10543374;28;20329;-79
2024/01/16 09:18:51;;;;;;;12.48;5.20;;;;;;;-0.69;100.00;99637.22;10546458;28;20043;-79
2024/01/16 09:23:54;;;;;;;11.00;5.38;;;;;;;-0.43;100.00;99641.31;10533112;28;20052;-79
2024/01/16 09:28:57;;;;;;;7.07;4.28;;;;;;;-0.93;100.00;99633.97;10537723;28;20059;-79
2024/01/16 09:34:02;;;;;;;9.73;3.95;;;;;;;-0.88;100.00;99639.00;10530153;28;20099;-80
2024/01/16 09:39:10;;;;;;;9.30;4.82;;;;;;;-0.66;100.00;99631.81;10550240;28;20055;-78
2024/01/16 09:44:13;;;;;;;10.07;5.70;;;;;;;-0.68;100.00;99628.41;10545675;28;20048;-79
2024/01/16 09:49:18;;;;;;;9.27;4.50;;;;;;;-0.93;100.00;99623.41;10541808;28;20051;-79
2024/01/16 09:54:22;;;;;;;9.48;4.57;;;;;;;-0.96;100.00;99623.53;10540633;28;20086;-79
2024/01/16 09:59:25;;;;;;;7.78;3.55;;;;;;;-0.91;100.00;99629.47;10528959;28;20107;-79
2024/01/16 10:04:30;;;;;;;8.23;3.75;;;;;;;-0.58;100.00;99631.47;10495123;28;20052;-79
2024/01/16 10:09:33;;;;;;;13.00;6.30;;;;;;;-0.72;100.00;99619.78;10502629;28;20051;-78
2024/01/16 10:14:36;;;;;;;14.55;6.03;;;;;;;-0.70;100.00;99629.41;10472268;28;21708;-78
2024/01/16 10:19:49;;;;;;;16.10;8.20;;;;;;;-0.47;100.00;99634.44;10444564;28;20040;-79
2024/01/16 10:25:05;;;;;;;13.40;6.32;;;;;;;-0.82;100.00;99639.59;10456677;28;20164;-79
2024/01/16 10:30:08;;;;;;;15.73;8.23;;;;;;;-0.56;100.00;99634.91;10447209;28;20036;-77
2024/01/16 10:35:15;;;;;;;13.70;6.47;;;;;;;-0.74;100.00;99637.47;10474205;28;20052;-79
2024/01/16 10:40:19;;;;;;;17.17;10.90;;;;;;;-0.63;100.00;99630.81;10447523;28;20490;-79
2024/01/16 10:45:26;;;;;;;20.10;8.13;;;;;;;-0.78;100.00;99656.97;10437206;28;20415;-79
2024/01/16 10:50:31;;;;;;;27.05;12.93;;;;;;;-0.93;100.00;99633.97;10453398;28;20055;-80
2024/01/16 10:55:44;;;;;;;23.98;11.05;;;;;;;-0.62;100.00;99620.22;10484874;28;20102;-79
2024/01/16 11:00:51;;;;;;;25.92;13.15;;;;;;;-0.19;98.11;99623.44;10495318;28;20048;-79
2024/01/16 11:05:58;;;;;;;16.85;7.65;;;;;;;-0.37;97.15;99625.16;10489491;28;20044;-79
2024/01/16 11:11:03;;;;;;;26.90;13.18;;;;;;;-0.39;97.70;99624.38;10489622;28;21312;-79
2024/01/16 11:16:07;;;;;;;23.77;11.80;;;;;;;-0.43;98.00;99638.66;10483749;28;20126;-79
2024/01/16 11:21:15;;;;;;;25.13;11.13;;;;;;;-0.81;99.63;99633.41;10490051;28;20040;-79
2024/01/16 11:26:28;;;;;;;38.03;16.48;;;;;;;-0.54;97.24;99633.03;10474479;28;20052;-80
2024/01/16 11:31:33;;;;;;;15.60;10.40;;;;;;;-0.79;98.20;99641.25;10488261;28;20530;-80
2024/01/16 11:36:52;;;;;;;30.70;15.82;;;;;;;-0.84;98.54;99632.69;10486127;28;20059;-79
2024/01/16 11:41:56;;;;;;;23.90;11.75;;;;;;;-0.42;96.33;99616.63;10485253;28;20036;-80
2024/01/16 11:47:03;;;;;;;18.35;9.65;;;;;;;-0.38;93.31;99625.25;10473063;28;20048;-79
2024/01/16 11:52:07;;;;;;;22.80;12.40;;;;;;;-0.73;95.36;99614.59;10490368;28;20062;-80
2024/01/16 11:57:31;;;;;;;16.20;9.93;;;;;;;-0.50;93.55;99624.88;10489325;28;20052;-79
2024/01/16 12:02:50;;;;;;;18.58;8.55;;;;;;;-0.57;92.90;99633.19;10480678;28;20092;-80
2024/01/16 12:07:55;;;;;;;26.73;9.93;;;;;;;-0.12;91.50;99632.75;10482819;28;20131;-80
2024/01/16 12:13:00;;;;;;;10.25;6.38;;;;;;;-0.14;90.68;99628.47;10488855;28;20047;-80
2024/01/16 12:18:07;;;;;;;15.18;5.85;;;;;;;-0.29;89.62;99616.88;10493734;28;20044;-80
2024/01/16 12:23:26;;;;;;;13.65;5.85;;;;;;;-0.71;92.60;99615.38;10494271;28;20641;-80
2024/01/16 12:28:29;;;;;;;10.00;5.53;;;;;;;-0.75;93.01;99611.16;10495728;28;20277;-80
2024/01/16 12:33:36;;;;;;;8.30;4.28;;;;;;;-0.58;91.15;99608.56;10492589;28;20498;-80
2024/01/16 12:38:42;;;;;;;11.52;5.50;;;;;;;-0.51;93.00;99599.44;10493024;28;20058;-80
2024/01/16 12:43:45;;;;;;;15.48;5.95;;;;;;;-0.96;98.20;99595.41;10521204;28;20056;-80
2024/01/16 12:48:54;;;;;;;9.15;4.60;;;;;;;-0.66;97.33;99597.53;10494019;28;20137;-79
2024/01/16 12:54:13;;;;;;;14.25;4.57;;;;;;;-0.80;99.52;99581.50;10485888;28;20104;-80
2024/01/16 12:59:17;;;;;;;8.90;4.05;;;;;;;-0.84;100.00;99572.03;10487776;28;20534;-80
2024/01/16 13:04:21;;;;;;;14.30;4.88;;;;;;;-0.59;98.98;99562.03;10494252;28;20048;-80
2024/01/16 13:09:26;;;;;;;13.02;3.72;;;;;;;-0.63;97.90;99564.88;10498073;28;20085;-80
2024/01/16 13:14:30;;;;;;;11.57;4.57;;;;;;;-0.93;100.00;99561.91;10503986;28;21307;-80
2024/01/16 13:19:33;;;;;;;12.20;4.85;;;;;;;-0.58;100.00;99568.16;10479934;28;20059;-80
2024/01/16 13:24:38;;;;;;;6.25;3.90;;;;;;;-0.72;100.00;99560.91;10480346;28;20048;-80
2024/01/16 13:29:41;;;;;;;13.25;4.43;;;;;;;-0.75;99.91;99551.34;10471390;28;20048;-79
2024/01/16 13:34:49;;;;;;;10.38;3.80;;;;;;;-0.93;98.41;99559.25;10482281;28;21134;-80
2024/01/16 13:39:53;;;;;;;8.98;4.47;;;;;;;-0.66;95.86;99554.47;10485094;28;20047;-80
2024/01/16 13:44:56;;;;;;;9.45;3.83;;;;;;;-0.54;92.96;99560.03;10497105;28;20048;-79
2024/01/16 13:50:03;;;;;;;9.57;3.63;;;;;;;-0.79;93.80;99556.84;10474288;28;20121;-79
2024/01/16 13:55:08;;;;;;;8.35;2.55;;;;;;;-0.82;92.42;99549.94;10486374;28;20073;-80
2024/01/16 14:00:13;;;;;;;6.85;3.08;;;;;;;-0.48;89.50;99543.03;10482472;28;20049;-80
2024/01/16 14:05:19;;;;;;;11.50;3.17;;;;;;;-0.60;89.30;99538.38;10477347;28;20110;-79
2024/01/16 14:10:24;;;;;;;9.85;3.42;;;;;;;-0.39;88.50;99531.19;10496306;28;20129;-80
2024/01/16 14:15:28;;;;;;;12.93;4.32;;;;;;;-0.31;87.03;99535.13;10481151;28;20183;-80
2024/01/16 14:20:31;;;;;;;13.05;3.83;;;;;;;-0.25;89.54;99528.69;10478807;28;20052;-78
2024/01/16 14:25:36;;;;;;;10.40;3.88;;;;;;;-0.69;93.02;99536.16;10474940;28;20760;-77
2024/01/16 14:30:40;;;;;;;14.00;4.28;;;;;;;-0.54;97.77;99524.88;10481055;28;20059;-79
2024/01/16 14:35:46;;;;;;;15.38;4.13;;;;;;;-0.64;93.76;99535.00;10469577;28;20704;-79
2024/01/16 14:40:51;;;;;;;17.08;4.30;;;;;;;-0.32;92.67;99536.09;10479860;28;20044;-79
2024/01/16 14:45:58;;;;;;;15.10;4.68;;;;;;;-0.46;92.99;99542.97;10468446;28;20050;-79
2024/01/16 14:51:01;;;;;;;13.45;4.65;;;;;;;-0.62;95.43;99541.06;10506050;28;20051;-79
2024/01/16 14:56:06;;;;;;;16.58;5.15;;;;;;;-0.54;94.29;99535.44;10498967;28;20499;-80
2024/01/16 15:01:10;;;;;;;5.95;2.97;;;;;;;-0.74;93.55;99539.00;10476859;28;20055;-79
2024/01/16 15:06:13;;;;;;;10.68;3.85;;;;;;;-0.73;92.64;99546.00;10447498;28;20043;-79
2024/01/16 15:11:18;;;;;;;14.38;3.70;;;;;;;-0.76;91.16;99541.75;10441984;28;20052;-78
2024/01/16 15:16:21;;;;;;;13.65;4.85;;;;;;;-0.11;88.54;99530.66;10485337;28;21504;-79
2024/01/16 15:21:24;;;;;;;18.30;4.72;;;;;;;-0.09;87.38;99534.06;10450368;28;20049;-80
2024/01/16 15:26:28;;;;;;;14.45;4.57;;;;;;;0.06;86.57;99527.16;10450246;28;20044;-78
2024/01/16 15:31:31;;;;;;;9.68;4.18;;;;;;;0.15;86.30;99526.69;10444158;28;20578;-77
2024/01/16 15:36:34;;;;;;;14.85;4.75;;;;;;;0.21;86.45;99526.38;10432957;28;20048;-79
2024/01/16 15:41:38;;;;;;;14.57;4.53;;;;;;;0.27;86.63;99526.03;10446708;28;20057;-80
2024/01/16 15:46:58;;;;;;;12.63;5.78;;;;;;;0.27;86.57;99523.41;10445815;28;20040;-79
2024/01/16 15:52:01;;;;;;;16.75;5.75;;;;;;;0.25;85.60;99519.13;10465434;28;20052;-77
2024/01/16 15:57:06;;;;;;;12.65;5.63;;;;;;;0.24;83.68;99528.00;10442731;28;20346;-78
2024/01/16 16:02:09;;;;;;;18.75;4.90;;;;;;;0.12;82.72;99522.41;10443349;28;20045;-78
2024/01/16 16:07:13;;;;;;;12.38;5.20;;;;;;;0.16;82.56;99528.38;10443138;28;20040;-79
2024/01/16 16:12:18;;;;;;;11.25;4.78;;;;;;;-0.11;81.91;99520.09;10437536;28;20605;-79
2024/01/16 16:17:21;;;;;;;10.00;3.80;;;;;;;-0.09;80.31;99505.88;10451138;28;20095;-79
2024/01/16 16:22:24;;;;;;;16.13;4.70;;;;;;;0.10;79.92;99518.16;10451216;28;20048;-78
2024/01/16 16:27:29;;;;;;;10.10;4.75;;;;;;;0.12;79.52;99521.56;10450202;28;20614;-79
2024/01/16 16:32:32;;;;;;;11.75;4.40;;;;;;;-0.53;80.41;99530.06;10444959;28;20110;-79
2024/01/16 16:37:36;;;;;;;13.02;4.53;;;;;;;-0.27;79.47;99530.59;10437384;28;20103;-79
2024/01/16 16:42:40;;;;;;;13.00;4.68;;;;;;;-0.41;79.33;99540.94;10467201;28;20542;-79
2024/01/16 16:47:46;;;;;;;13.60;5.18;;;;;;;-0.42;79.07;99539.25;10483521;28;20040;-79
2024/01/16 16:52:49;;;;;;;13.80;4.25;;;;;;;-0.66;80.26;99536.84;10453016;28;20064;-78
2024/01/16 16:57:55;;;;;;;11.38;4.57;;;;;;;-0.88;81.07;99542.31;10468184;28;20040;-78
2024/01/16 17:02:59;;;;;;;11.98;4.55;;;;;;;-0.86;81.39;99534.34;10484147;28;20033;-77
2024/01/16 17:08:03;;;;;;;8.98;4.85;;;;;;;-0.65;80.63;99535.09;10463800;28;20051;-79
2024/01/16 17:13:10;;;;;;;19.95;4.65;;;;;;;-1.04;81.44;99541.31;10475429;28;20570;-78
2024/01/16 17:18:13;;;;;;;4.22;3.33;;;;;;;-0.84;80.20;99535.97;10493853;28;20104;-78
2024/01/16 17:23:17;;;;;;;17.92;6.63;;;;;;;-0.73;79.81;99546.00;10518523;28;20050;-77
2024/01/16 17:28:22;;;;;;;10.85;5.70;;;;;;;-0.95;80.31;99551.44;10531870;28;20139;-78
2024/01/16 17:33:26;;;;;;;10.23;4.47;;;;;;;-1.03;80.71;99548.31;10453306;28;20487;-78
2024/01/16 17:38:29;;;;;;;15.95;5.43;;;;;;;-1.01;80.46;99541.19;10445018;28;20674;-77
2024/01/16 17:43:34;;;;;;;14.35;6.10;;;;;;;-1.14;81.87;99545.31;10437739;28;20045;-80
2024/01/16 17:48:37;;;;;;;15.30;5.57;;;;;;;-1.35;81.76;99542.72;10452692;28;20098;-79
2024/01/16 17:53:42;;;;;;;20.52;6.47;;;;;;;-1.41;83.18;99519.28;10448364;28;20057;-79
2024/01/16 17:58:46;;;;;;;9.80;5.25;;;;;;;-1.24;81.22;99515.88;10446100;28;20054;-80
2024/01/16 18:03:49;;;;;;;16.17;7.43;;;;;;;-1.37;81.33;99517.38;10454371;28;20079;-80
2024/01/16 18:08:52;;;;;;;18.05;7.40;;;;;;;-1.34;81.62;99518.09;10443494;28;20045;-80
2024/01/16 18:13:58;;;;;;;17.42;7.90;;;;;;;-1.23;80.60;99514.97;10467220;28;20509;-79
2024/01/16 18:19:03;;;;;;;13.20;7.40;;;;;;;-1.42;81.32;99497.38;10445566;28;20052;-79
2024/01/16 18:24:06;;;;;;;13.20;7.40;;;;;;;-1.28;81.05;99499.38;10475469;28;20048;-79
2024/01/16 18:29:11;;;;;;;11.10;5.22;;;;;;;-1.50;81.18;99494.22;10470834;28;20170;-79
2024/01/16 18:34:20;;;;;;;17.52;8.18;;;;;;;-1.44;80.38;99493.94;10493765;28;20376;-79
2024/01/16 18:39:25;;;;;;;15.55;6.63;;;;;;;-1.73;81.82;99500.50;10491427;28;20040;-79
2024/01/16 18:44:29;;;;;;;12.13;5.30;;;;;;;-1.78;82.99;99492.00;10471586;28;20059;-80
2024/01/16 18:49:34;;;;;;;14.38;6.88;;;;;;;-1.67;82.04;99481.81;10472995;28;20532;-78
2024/01/16 18:54:37;;;;;;;8.20;5.15;;;;;;;-1.79;81.75;99485.00;10443757;28;20045;-79
2024/01/16 18:59:42;;;;;;;22.60;7.20;;;;;;;-1.49;81.17;99490.66;10436974;28;20059;-79
2024/01/16 19:04:47;;;;;;;16.02;7.25;;;;;;;-1.66;81.82;99494.06;10451301;28;20080;-79
2024/01/16 19:09:50;;;;;;;17.27;7.97;;;;;;;-1.64;81.59;99499.28;10463517;28;20048;-78
2024/01/16 19:14:54;;;;;;;15.43;5.10;;;;;;;-1.64;80.89;99505.38;10487086;28;20055;-80
2024/01/16 19:19:57;;;;;;;24.70;9.65;;;;;;;-1.46;80.54;99495.78;10445046;28;20134;-79
2024/01/16 19:25:01;;;;;;;23.55;8.55;;;;;;;-1.73;81.29;99489.97;10450568;28;20056;-79
2024/01/16 19:30:07;;;;;;;20.15;8.07;;;;;;;-1.53;80.39;99488.25;10454713;28;20078;-79
2024/01/16 19:35:11;;;;;;;25.48;8.70;;;;;;;-1.59;80.57;99499.03;10451589;28;20055;-79
2024/01/16 19:40:15;;;;;;;24.15;8.98;;;;;;;-1.47;79.54;99495.88;10449338;28;20162;-79
2024/01/16 19:45:22;;;;;;;28.15;8.45;;;;;;;-1.58;79.33;99491.09;10486770;28;20577;-81
2024/01/16 19:50:25;;;;;;;23.65;9.60;;;;;;;-1.46;78.88;99484.41;10464116;28;20056;-80
2024/01/16 19:55:29;;;;;;;22.75;9.48;;;;;;;-1.54;79.83;99474.22;10478787;28;21529;-80
2024/01/16 20:00:33;;;;;;;14.48;7.30;;;;;;;-1.68;79.24;99471.34;10457425;28;20041;-79
2024/01/16 20:05:37;;;;;;;15.52;8.73;;;;;;;-1.65;79.39;99464.16;10457480;28;20048;-80
2024/01/16 20:10:41;;;;;;;15.68;8.57;;;;;;;-1.78;79.60;99457.75;10472009;28;20476;-81
2024/01/16 20:15:47;;;;;;;17.38;8.30;;;;;;;-1.74;79.65;99445.31;10464416;28;20047;-80
2024/01/16 20:20:49;;;;;;;16.98;8.50;;;;;;;-1.73;79.34;99433.84;10491339;28;20574;-80
2024/01/16 20:25:52;;;;;;;22.45;8.60;;;;;;;-1.78;79.13;99430.56;10470026;28;20546;-80
2024/01/16 20:30:57;;;;;;;23.10;8.63;;;;;;;-1.76;79.20;99421.66;10445700;28;20168;-80
2024/01/16 20:36:01;;;;;;;22.23;9.88;;;;;;;-1.81;79.64;99421.03;10478445;28;20056;-81
2024/01/16 20:41:04;;;;;;;13.98;8.75;;;;;;;-1.90;79.81;99406.50;10490657;28;20475;-81
2024/01/16 20:46:09;;;;;;;25.20;9.10;;;;;;;-1.97;79.99;99397.19;10465271;28;20048;-80
2024/01/16 20:51:14;;;;;;;17.60;8.50;;;;;;;-1.91;79.67;99383.75;10465121;28;20047;-79
2024/01/16 20:56:18;;;;;;;13.15;6.55;;;;;;;-1.95;79.64;99373.41;10490327;28;20051;-79
2024/01/16 21:01:22;;;;;;;14.10;6.75;;;;;;;-2.12;79.84;99374.19;10463747;28;20113;-79
2024/01/16 21:06:25;;;;;;;12.38;7.00;;;;;;;-2.21;80.89;99359.66;10459098;28;20050;-80
2024/01/16 21:11:28;;;;;;;17.88;8.38;;;;;;;-1.95;79.23;99361.09;10460658;28;20161;-80
2024/01/16 21:16:33;;;;;;;11.68;7.72;;;;;;;-1.93;79.01;99355.78;10461400;28;20051;-83
2024/01/16 21:21:36;;;;;;;22.30;8.10;;;;;;;-1.95;78.56;99363.72;10474311;28;20063;-79
2024/01/16 21:26:39;;;;;;;20.30;7.78;;;;;;;-2.02;78.17;99364.09;10507547;28;20051;-80
2024/01/16 21:31:44;;;;;;;18.52;8.65;;;;;;;-2.11;78.63;99358.34;10509081;28;20043;-80
2024/01/16 21:36:47;;;;;;;16.20;7.20;;;;;;;-2.20;78.78;99363.13;10510185;28;20040;-81
2024/01/16 21:41:50;;;;;;;14.52;6.60;;;;;;;-2.22;77.92;99359.72;10501519;28;20040;-81
2024/01/16 21:46:55;;;;;;;13.18;6.07;;;;;;;-2.43;78.46;99359.75;10497158;28;20055;-80
2024/01/16 21:52:00;;;;;;;11.30;4.32;;;;;;;-2.29;78.08;99346.00;10462496;28;20574;-81
2024/01/16 21:57:04;;;;;;;13.23;6.32;;;;;;;-2.49;78.21;99348.66;10456371;28;20049;-80
2024/01/16 22:02:09;;;;;;;17.55;4.50;;;;;;;-2.28;77.08;99339.81;10470522;28;20202;-80
2024/01/16 22:07:12;;;;;;;11.65;6.55;;;;;;;-2.39;77.53;99334.16;10469209;28;20504;-79
2024/01/16 22:12:15;;;;;;;12.27;5.68;;;;;;;-2.51;78.03;99327.69;10459443;28;20052;-80
2024/01/16 22:17:21;;;;;;;16.88;6.45;;;;;;;-2.49;77.15;99325.84;10448459;28;20052;-80
2024/01/16 22:22:24;;;;;;;6.75;3.40;;;;;;;-2.44;76.02;99323.00;10464894;28;20126;-79
2024/01/16 22:27:27;;;;;;;11.23;5.15;;;;;;;-2.29;75.06;99314.44;10486542;28;20138;-80
2024/01/16 22:32:31;;;;;;;12.95;5.70;;;;;;;-2.31;74.50;99303.13;10455994;28;20132;-79
2024/01/16 22:37:34;;;;;;;14.32;5.68;;;;;;;-2.25;74.71;99305.47;10461474;28;20056;-80
2024/01/16 22:42:37;;;;;;;13.43;4.20;;;;;;;-2.63;74.48;99297.53;10460280;28;20058;-79
2024/01/16 22:47:42;;;;;;;6.22;4.20;;;;;;;-2.44;74.64;99287.06;10472226;28;20412;-79
2024/01/16 22:52:47;;;;;;;12.07;5.55;;;;;;;-2.49;75.43;99278.50;10468704;28;20057;-80
2024/01/16 22:57:50;;;;;;;12.15;4.03;;;;;;;-2.33;74.11;99271.63;10456075;28;20190;-81
2024/01/16 23:02:55;;;;;;;11.95;3.15;;;;;;;-2.82;75.33;99265.94;10472023;28;20044;-81
2024/01/16 23:07:58;;;;;;;12.32;4.63;;;;;;;-2.43;74.65;99246.66;10469987;28;20127;-80
2024/01/16 23:13:01;;;;;;;9.20;6.05;;;;;;;-2.18;73.36;99242.91;10470356;28;20044;-81
2024/01/16 23:18:06;;;;;;;8.88;4.50;;;;;;;-2.35;73.48;99228.75;10455325;28;20411;-80